Time;durP1;ratioP1;P1;durP2;ratioP2;P2;SDS_P1;SDS_P2;PMS_P1;PMS_P2;Temp;Humidity;BMP_temperature;BMP_pressure;BME280_temperature;BME280_humidity;BME280_pressure;Samples;Min_cycle;Max_cycle;Signal;HPM_P1;HPM_P2
2022/06/22 00:01:22;;;;;;;8.43;4.50;;;21.10;99.90;;;;;;4955880;28;20198;-78
2022/06/22 00:04:00;;;;;;;4.40;3.58;;;21.20;99.90;;;;;;4956573;28;20995;-78
2022/06/22 00:06:33;;;;;;;4.72;3.90;;;21.20;99.90;;;;;;4960457;28;20759;-78
2022/06/22 00:09:02;;;;;;;8.25;3.90;;;21.20;99.90;;;;;;4957920;28;20216;-78
2022/06/22 00:11:29;;;;;;;5.00;3.20;;;21.10;99.90;;;;;;4962037;28;20249;-78
2022/06/22 00:13:59;;;;;;;6.82;3.45;;;21.00;99.90;;;;;;4960073;28;20585;-79
2022/06/22 00:16:29;;;;;;;8.35;4.40;;;21.10;99.90;;;;;;4958707;28;20234;-78
2022/06/22 00:18:59;;;;;;;6.65;4.07;;;20.90;99.90;;;;;;4987165;28;20185;-81
2022/06/22 00:21:31;;;;;;;5.13;3.60;;;20.60;99.90;;;;;;4997776;28;20212;-81
2022/06/22 00:24:01;;;;;;;4.85;3.55;;;20.50;99.90;;;;;;4989972;28;20199;-82
2022/06/22 00:29:34;;;;;;;7.40;3.40;;;20.60;99.90;;;;;;4984831;28;20212;-77
2022/06/22 00:32:13;;;;;;;3.55;2.80;;;20.60;99.90;;;;;;4982507;28;20755;-78
2022/06/22 00:34:42;;;;;;;3.05;2.70;;;20.70;99.90;;;;;;4970286;28;20719;-77
2022/06/22 00:37:15;;;;;;;4.20;3.08;;;20.70;99.90;;;;;;4971927;28;20198;-77
2022/06/22 00:39:44;;;;;;;3.80;3.03;;;20.70;99.90;;;;;;4969556;28;20249;-77
2022/06/22 00:42:26;;;;;;;6.15;3.20;;;20.80;99.90;;;;;;4969253;28;20219;-77
2022/06/22 00:45:00;;;;;;;4.45;2.90;;;20.80;99.90;;;;;;4966350;28;20217;-77
2022/06/22 00:47:31;;;;;;;4.50;2.55;;;20.80;99.90;;;;;;4972072;28;20663;-78
2022/06/22 00:50:06;;;;;;;4.15;3.45;;;20.80;99.90;;;;;;4965913;28;20584;-77
2022/06/22 00:52:38;;;;;;;4.03;2.55;;;20.70;99.90;;;;;;4967598;28;20316;-78
2022/06/22 00:55:15;;;;;;;37.85;4.15;;;20.70;99.90;;;;;;4969458;28;20626;-77
2022/06/22 00:57:49;;;;;;;7.22;4.00;;;20.60;99.90;;;;;;4964222;28;20209;-77
2022/06/22 01:00:20;;;;;;;4.80;3.53;;;20.30;99.90;;;;;;4967747;28;20221;-78
2022/06/22 01:02:52;;;;;;;6.40;3.95;;;20.10;99.90;;;;;;4965998;28;20314;-77
2022/06/22 01:05:27;;;;;;;5.05;3.45;;;20.10;99.90;;;;;;4971165;28;20223;-77
2022/06/22 01:08:01;;;;;;;7.32;3.90;;;20.20;99.90;;;;;;4965665;28;20204;-77
2022/06/22 01:10:33;;;;;;;5.78;3.58;;;20.30;99.90;;;;;;4965063;28;20228;-78
2022/06/22 01:13:08;;;;;;;9.52;4.28;;;20.30;99.90;;;;;;4978320;28;20248;-77
2022/06/22 01:15:38;;;;;;;5.70;3.17;;;20.20;99.90;;;;;;4970430;28;20267;-78
2022/06/22 01:18:11;;;;;;;6.10;3.63;;;20.20;99.90;;;;;;4970751;28;20320;-77
2022/06/22 01:20:52;;;;;;;4.75;3.22;;;20.20;99.90;;;;;;4969456;28;20221;-78
2022/06/22 01:23:49;;;;;;;5.07;3.47;;;20.20;99.90;;;;;;4968804;28;20681;-77
2022/06/22 01:26:49;;;;;;;3.40;2.60;;;20.10;99.90;;;;;;4949203;28;20236;-79
2022/06/22 01:29:20;;;;;;;5.20;3.35;;;19.90;99.90;;;;;;4968057;28;20205;-78
2022/06/22 01:31:57;;;;;;;4.95;3.00;;;19.70;99.90;;;;;;4973151;28;20225;-79
2022/06/22 01:34:26;;;;;;;4.47;2.75;;;19.60;99.90;;;;;;4969425;28;20251;-78
2022/06/22 01:36:53;;;;;;;6.15;3.00;;;19.40;99.90;;;;;;4973321;28;20264;-78
2022/06/22 01:39:20;;;;;;;5.32;3.30;;;19.30;99.90;;;;;;4968896;28;20206;-77
2022/06/22 01:41:54;;;;;;;4.07;3.15;;;19.30;99.90;;;;;;4976790;28;20217;-78
2022/06/22 01:44:27;;;;;;;6.53;3.42;;;19.30;99.90;;;;;;4982409;28;20203;-78
2022/06/22 01:47:28;;;;;;;3.90;2.95;;;19.30;99.90;;;;;;4971097;28;20676;-77
2022/06/22 01:50:04;;;;;;;4.55;2.97;;;19.30;99.90;;;;;;4891509;29;20244;-77
2022/06/22 01:52:56;;;;;;;4.90;3.17;;;19.20;99.90;;;;;;4958796;28;20240;-78
2022/06/22 01:55:37;;;;;;;3.90;3.00;;;19.20;99.90;;;;;;4976539;28;20229;-78
2022/06/22 01:58:25;;;;;;;7.13;3.33;;;19.20;99.90;;;;;;4968111;28;20209;-77
2022/06/22 02:00:59;;;;;;;5.57;3.08;;;19.10;99.90;;;;;;4974103;28;20571;-78
2022/06/22 02:03:32;;;;;;;4.57;3.20;;;19.10;99.90;;;;;;4972180;28;20224;-78
2022/06/22 02:07:44;;;;;;;5.45;3.13;;;19.00;99.90;;;;;;4974306;28;20652;-78
2022/06/22 02:08:52;;;;;;;3.28;2.97;;;18.90;99.90;;;;;;4963688;28;20212;-78
2022/06/22 02:11:24;;;;;;;6.15;3.10;;;18.90;99.90;;;;;;4964904;28;20222;-78
2022/06/22 02:13:58;;;;;;;7.45;3.00;;;18.90;99.90;;;;;;4973462;28;20200;-78
2022/06/22 02:16:31;;;;;;;3.97;2.80;;;18.80;99.90;;;;;;4971054;28;20228;-79
2022/06/22 02:19:14;;;;;;;7.43;3.13;;;18.80;99.90;;;;;;4974122;28;20196;-77
2022/06/22 02:21:43;;;;;;;6.03;2.92;;;18.80;99.90;;;;;;4964792;28;20229;-78
2022/06/22 02:24:14;;;;;;;3.70;2.80;;;18.80;99.90;;;;;;4970155;28;20202;-78
2022/06/22 02:26:47;;;;;;;3.65;2.80;;;18.80;99.90;;;;;;4975339;28;20217;-78
2022/06/22 02:29:16;;;;;;;4.88;3.20;;;18.70;99.90;;;;;;4974649;28;20589;-77
2022/06/22 02:31:46;;;;;;;3.67;2.80;;;18.60;99.90;;;;;;4971096;28;20222;-78
2022/06/22 02:34:15;;;;;;;4.82;3.03;;;18.60;99.90;;;;;;4975116;28;20209;-77
2022/06/22 02:36:45;;;;;;;4.65;3.30;;;18.60;99.90;;;;;;4978857;28;20221;-79
2022/06/22 02:39:14;;;;;;;4.85;2.90;;;18.60;99.90;;;;;;4973419;28;20602;-78
2022/06/22 02:44:33;;;;;;;7.47;3.20;;;18.60;99.90;;;;;;4971428;28;20665;-79
2022/06/22 02:47:17;;;;;;;4.05;3.00;;;18.60;99.90;;;;;;4979412;28;20221;-79
2022/06/22 02:49:49;;;;;;;4.28;2.75;;;18.60;99.90;;;;;;4969452;28;20287;-78
2022/06/22 02:52:18;;;;;;;5.60;3.20;;;18.60;99.90;;;;;;4971503;28;20276;-78
2022/06/22 02:54:49;;;;;;;3.72;3.35;;;18.50;99.90;;;;;;4970644;28;20232;-78
2022/06/22 02:57:23;;;;;;;7.75;3.38;;;18.50;99.90;;;;;;4972210;28;20205;-78
2022/06/22 02:59:51;;;;;;;6.22;4.65;;;18.50;99.90;;;;;;4972532;28;20688;-77
2022/06/22 03:02:23;;;;;;;5.95;3.63;;;18.40;99.90;;;;;;4971382;28;20220;-78
2022/06/22 03:04:52;;;;;;;6.40;3.65;;;18.20;99.90;;;;;;4969295;28;20610;-77
2022/06/22 03:07:21;;;;;;;5.60;3.60;;;18.20;99.90;;;;;;4969550;28;20197;-78
2022/06/22 03:09:49;;;;;;;5.80;3.63;;;18.30;99.90;;;;;;4970799;28;20226;-77
2022/06/22 03:12:17;;;;;;;3.97;3.00;;;18.30;99.90;;;;;;4966547;28;20242;-79
2022/06/22 03:14:53;;;;;;;5.38;3.55;;;18.40;99.90;;;;;;4972742;28;20214;-78
2022/06/22 03:17:24;;;;;;;3.35;3.05;;;18.40;99.90;;;;;;4970294;28;20538;-77
2022/06/22 03:19:55;;;;;;;7.45;3.60;;;18.40;99.90;;;;;;4974337;28;20249;-79
2022/06/22 03:22:27;;;;;;;4.80;2.80;;;18.50;99.90;;;;;;4969753;28;20279;-78
2022/06/22 03:24:58;;;;;;;6.18;2.83;;;18.50;99.90;;;;;;4973590;28;20249;-78
2022/06/22 03:27:30;;;;;;;6.72;3.35;;;18.50;99.90;;;;;;4968100;28;20213;-77
2022/06/22 03:30:01;;;;;;;3.85;3.28;;;18.50;99.90;;;;;;4972893;28;20225;-78
2022/06/22 03:32:35;;;;;;;3.70;2.88;;;18.50;99.90;;;;;;4971147;28;20692;-78
2022/06/22 03:35:07;;;;;;;5.15;3.30;;;18.50;99.90;;;;;;4970802;28;20230;-78
2022/06/22 03:37:38;;;;;;;5.00;3.05;;;18.50;99.90;;;;;;4973757;28;20691;-78
2022/06/22 03:40:11;;;;;;;4.65;2.90;;;18.50;99.90;;;;;;4972727;28;20228;-77
2022/06/22 03:42:43;;;;;;;6.00;2.78;;;18.50;99.90;;;;;;4971012;28;20704;-78
2022/06/22 03:45:16;;;;;;;8.80;3.10;;;18.60;99.90;;;;;;4966853;28;20224;-77
2022/06/22 03:47:50;;;;;;;6.45;3.35;;;18.60;99.90;;;;;;4965343;28;21044;-77
2022/06/22 03:50:22;;;;;;;4.68;3.03;;;18.60;99.90;;;;;;4969457;28;20221;-78
2022/06/22 03:52:56;;;;;;;4.18;2.78;;;18.60;99.90;;;;;;4966681;28;20245;-78
2022/06/22 03:55:25;;;;;;;3.60;2.88;;;18.60;99.90;;;;;;4970512;28;20225;-78
2022/06/22 03:57:55;;;;;;;4.88;3.03;;;18.60;99.90;;;;;;4976038;28;20633;-77
2022/06/22 04:00:23;;;;;;;6.25;3.10;;;18.70;99.90;;;;;;4972709;28;20228;-78
2022/06/22 04:02:52;;;;;;;5.80;3.63;;;18.70;99.90;;;;;;4971399;28;20222;-77
2022/06/22 04:05:22;;;;;;;5.10;3.50;;;18.70;99.90;;;;;;4972144;28;20249;-75
2022/06/22 04:07:51;;;;;;;6.47;3.45;;;18.70;99.90;;;;;;4974985;28;20201;-79
2022/06/22 04:10:38;;;;;;;6.00;3.20;;;18.70;99.90;;;;;;4975229;28;20221;-79
2022/06/22 04:13:12;;;;;;;4.65;3.33;;;18.80;99.90;;;;;;4975684;28;20688;-79
2022/06/22 04:15:44;;;;;;;4.85;2.78;;;18.90;99.90;;;;;;4974520;28;20221;-79
2022/06/22 04:18:19;;;;;;;4.45;2.85;;;19.00;99.90;;;;;;4972810;28;20201;-79
2022/06/22 04:20:54;;;;;;;7.80;3.45;;;19.10;99.90;;;;;;4955984;29;20217;-79
2022/06/22 04:23:33;;;;;;;4.10;3.03;;;19.10;99.90;;;;;;4963829;28;20232;-80
2022/06/22 04:26:06;;;;;;;4.32;2.95;;;19.20;99.90;;;;;;4955994;29;20225;-79
2022/06/22 04:28:38;;;;;;;3.42;2.78;;;19.20;99.90;;;;;;4966757;28;20217;-79
2022/06/22 04:31:08;;;;;;;4.57;3.03;;;19.20;99.90;;;;;;4969717;28;20710;-78
2022/06/22 04:33:43;;;;;;;5.50;3.05;;;19.30;99.90;;;;;;4975154;28;20217;-79
2022/06/22 04:36:14;;;;;;;4.55;2.80;;;19.30;99.90;;;;;;4974955;28;20232;-78
2022/06/22 04:38:46;;;;;;;4.75;2.70;;;19.40;99.90;;;;;;4971671;28;20194;-79
2022/06/22 04:41:23;;;;;;;5.38;3.40;;;19.50;99.90;;;;;;4967570;28;20229;-79
2022/06/22 04:43:51;;;;;;;5.30;3.33;;;19.50;99.90;;;;;;4978212;28;20212;-79
2022/06/22 04:46:23;;;;;;;4.38;3.10;;;19.50;99.90;;;;;;4976206;28;20222;-80
2022/06/22 04:48:55;;;;;;;4.40;3.13;;;19.60;99.90;;;;;;4976286;28;20245;-80
2022/06/22 04:51:28;;;;;;;5.45;3.63;;;19.80;99.90;;;;;;4979852;28;20221;-78
2022/06/22 04:53:59;;;;;;;5.88;3.28;;;20.00;99.90;;;;;;4975061;28;20202;-78
2022/06/22 04:56:30;;;;;;;6.97;4.28;;;20.10;99.90;;;;;;4962392;28;20230;-79
2022/06/22 04:58:59;;;;;;;5.70;3.50;;;20.10;99.90;;;;;;4962723;28;20563;-79
2022/06/22 05:01:32;;;;;;;4.78;3.42;;;20.30;99.90;;;;;;4974359;28;20252;-79
2022/06/22 05:04:05;;;;;;;9.68;4.18;;;20.50;99.90;;;;;;4969009;28;20198;-78
2022/06/22 05:06:39;;;;;;;7.63;4.68;;;20.70;99.90;;;;;;4975396;28;20222;-77
2022/06/22 05:09:13;;;;;;;9.05;5.47;;;21.00;99.90;;;;;;4974358;28;20194;-79
2022/06/22 05:11:44;;;;;;;10.73;5.47;;;21.00;99.90;;;;;;4980792;28;20236;-79
2022/06/22 05:14:17;;;;;;;7.95;4.80;;;21.00;99.90;;;;;;4970318;28;20193;-78
2022/06/22 05:16:50;;;;;;;7.40;4.82;;;21.00;99.90;;;;;;4977091;28;20228;-78
2022/06/22 05:19:19;;;;;;;6.68;4.65;;;21.10;99.90;;;;;;4973093;28;20196;-79
2022/06/22 05:21:47;;;;;;;7.20;4.55;;;21.00;99.90;;;;;;4977753;28;20220;-78
2022/06/22 05:24:20;;;;;;;5.55;4.55;;;20.90;99.90;;;;;;4978125;28;20206;-78
2022/06/22 05:26:49;;;;;;;8.27;5.00;;;20.90;99.90;;;;;;4970330;28;20221;-79
2022/06/22 05:29:20;;;;;;;6.50;5.07;;;20.90;99.90;;;;;;4972319;28;20205;-78
2022/06/22 05:31:50;;;;;;;7.35;4.95;;;21.10;99.90;;;;;;4971687;28;20218;-78
2022/06/22 05:34:22;;;;;;;11.57;5.43;;;21.20;99.90;;;;;;4975006;28;20197;-78
2022/06/22 05:36:57;;;;;;;6.50;5.68;;;21.40;99.90;;;;;;4975350;28;20213;-79
2022/06/22 05:39:24;;;;;;;7.70;4.90;;;21.40;99.90;;;;;;4976041;28;20197;-78
2022/06/22 05:41:53;;;;;;;6.15;5.28;;;21.60;99.90;;;;;;4978681;28;20701;-78
2022/06/22 05:44:23;;;;;;;6.15;5.47;;;21.90;99.90;;;;;;4978919;28;20198;-79
2022/06/22 05:46:52;;;;;;;9.02;5.68;;;22.00;99.90;;;;;;4977526;28;20230;-79
2022/06/22 05:49:23;;;;;;;9.57;7.07;;;21.90;99.90;;;;;;4982286;28;20205;-79
2022/06/22 05:51:56;;;;;;;7.38;5.85;;;21.60;99.90;;;;;;4966656;28;20726;-77
2022/06/22 05:54:29;;;;;;;9.13;5.95;;;21.40;99.90;;;;;;4961496;28;20201;-77
2022/06/22 05:57:04;;;;;;;8.35;5.80;;;21.20;99.90;;;;;;4971306;28;20217;-77
2022/06/22 05:59:38;;;;;;;8.38;6.43;;;21.10;99.90;;;;;;4969221;28;20676;-78
2022/06/22 06:02:12;;;;;;;12.25;8.63;;;21.20;99.90;;;;;;4969306;28;20224;-78
2022/06/22 06:04:47;;;;;;;9.68;8.25;;;21.20;99.90;;;;;;4965315;28;20678;-78
2022/06/22 06:07:19;;;;;;;7.88;6.75;;;21.30;99.90;;;;;;4963333;28;20240;-78
2022/06/22 06:09:48;;;;;;;7.88;6.65;;;21.20;99.90;;;;;;4973042;28;20640;-78
2022/06/22 06:12:18;;;;;;;11.68;7.97;;;21.10;99.90;;;;;;4969381;28;20812;-78
2022/06/22 06:14:48;;;;;;;13.90;6.95;;;21.00;99.90;;;;;;4971852;28;20201;-77
2022/06/22 06:17:22;;;;;;;6.35;5.63;;;21.10;99.90;;;;;;4971235;28;20222;-77
2022/06/22 06:19:54;;;;;;;6.35;5.70;;;21.20;99.90;;;;;;4993749;23;20229;-75
2022/06/22 06:22:23;;;;;;;7.53;6.05;;;21.30;99.90;;;;;;4981295;28;20699;-76
2022/06/22 06:27:43;;;;;;;8.45;5.78;;;21.40;99.90;;;;;;4976486;28;20777;-76
2022/06/22 06:30:18;;;;;;;6.55;5.80;;;21.40;99.90;;;;;;4979976;28;20763;-74
2022/06/22 06:32:51;;;;;;;11.63;6.95;;;21.60;99.90;;;;;;4973027;28;20692;-74
2022/06/22 06:35:27;;;;;;;10.25;6.50;;;21.70;99.90;;;;;;4983843;28;20193;-75
2022/06/22 06:38:02;;;;;;;10.20;7.95;;;21.60;99.90;;;;;;4987321;28;20216;-74
2022/06/22 06:40:36;;;;;;;12.52;7.90;;;21.40;99.90;;;;;;4990271;28;20721;-74
2022/06/22 06:43:24;;;;;;;12.52;7.60;;;21.20;99.90;;;;;;4992106;28;20216;-74
2022/06/22 06:45:52;;;;;;;10.20;6.90;;;21.20;99.90;;;;;;4985646;28;20197;-74
2022/06/22 06:48:24;;;;;;;7.60;6.07;;;21.20;99.90;;;;;;4989154;28;20235;-74
2022/06/22 06:50:56;;;;;;;9.48;6.72;;;21.40;99.90;;;;;;4982576;28;20228;-74
2022/06/22 06:53:30;;;;;;;10.38;6.72;;;21.60;99.90;;;;;;4984764;28;20229;-74
2022/06/22 06:56:01;;;;;;;8.07;5.85;;;21.90;99.90;;;;;;4983626;28;20200;-74
2022/06/22 06:58:36;;;;;;;9.38;5.88;;;22.20;99.90;;;;;;4983010;28;20225;-74
2022/06/22 07:01:05;;;;;;;9.75;6.80;;;22.30;99.90;;;;;;4987399;28;21575;-75
2022/06/22 07:03:37;;;;;;;8.52;7.70;;;22.30;99.90;;;;;;4987570;28;20225;-74
2022/06/22 07:06:06;;;;;;;7.35;6.53;;;22.20;99.90;;;;;;4982665;28;20220;-74
2022/06/22 07:08:37;;;;;;;10.70;6.65;;;22.20;99.90;;;;;;4978727;28;20600;-75
2022/06/22 07:11:11;;;;;;;11.55;7.18;;;22.30;99.90;;;;;;4979613;28;20228;-74
2022/06/22 07:13:46;;;;;;;11.80;7.32;;;22.10;99.90;;;;;;4982662;28;20228;-74
2022/06/22 07:16:18;;;;;;;8.98;6.72;;;22.10;99.90;;;;;;4981739;28;20611;-74
2022/06/22 07:18:50;;;;;;;7.75;6.95;;;22.10;99.90;;;;;;4978561;28;20235;-74
2022/06/22 07:21:23;;;;;;;7.82;6.03;;;22.10;99.90;;;;;;4977591;28;20233;-75
2022/06/22 07:23:53;;;;;;;12.00;7.50;;;21.90;99.90;;;;;;4978074;28;20225;-75
2022/06/22 07:26:36;;;;;;;10.10;7.35;;;21.70;99.90;;;;;;4981117;28;20197;-74
2022/06/22 07:29:10;;;;;;;11.00;7.15;;;21.50;99.90;;;;;;4983377;28;20220;-74
2022/06/22 07:31:43;;;;;;;11.10;8.13;;;21.30;99.90;;;;;;4994511;28;20200;-74
2022/06/22 07:34:18;;;;;;;12.63;7.65;;;21.10;99.90;;;;;;4977204;28;20217;-75
2022/06/22 07:36:50;;;;;;;10.35;7.75;;;21.00;99.90;;;;;;4983245;28;20197;-74
2022/06/22 07:39:21;;;;;;;11.68;7.07;;;20.90;99.90;;;;;;4984972;28;20228;-76
2022/06/22 07:41:48;;;;;;;9.95;6.90;;;20.80;99.90;;;;;;4986478;28;20254;-77
2022/06/22 07:44:19;;;;;;;8.88;6.85;;;20.80;99.90;;;;;;4971025;28;20229;-76
2022/06/22 07:46:51;;;;;;;7.47;6.72;;;20.70;99.90;;;;;;4973947;28;20197;-74
2022/06/22 07:49:27;;;;;;;10.18;7.65;;;20.70;99.90;;;;;;4976765;28;20232;-74
2022/06/22 07:51:57;;;;;;;7.78;6.90;;;20.70;99.90;;;;;;4981723;28;20204;-74
2022/06/22 07:54:31;;;;;;;7.70;6.55;;;20.70;99.90;;;;;;4976508;28;20232;-74
2022/06/22 07:57:06;;;;;;;7.78;6.97;;;20.70;99.90;;;;;;4983130;28;20880;-73
2022/06/22 07:59:40;;;;;;;8.48;6.95;;;20.80;99.90;;;;;;4986450;28;20219;-74
2022/06/22 08:02:16;;;;;;;7.10;6.40;;;20.80;99.90;;;;;;4985264;28;20763;-74
2022/06/22 08:04:50;;;;;;;7.25;6.15;;;20.80;99.90;;;;;;4980917;28;20212;-77
2022/06/22 08:07:22;;;;;;;7.63;6.82;;;20.90;99.90;;;;;;4977364;28;20189;-73
2022/06/22 08:09:58;;;;;;;9.77;6.78;;;21.10;99.90;;;;;;4981745;28;20228;-73
2022/06/22 08:12:30;;;;;;;12.85;8.35;;;21.10;99.90;;;;;;4982388;28;20205;-74
2022/06/22 08:14:58;;;;;;;8.30;7.18;;;20.90;99.90;;;;;;4976689;28;20235;-74
2022/06/22 08:17:42;;;;;;;10.05;7.95;;;20.90;99.90;;;;;;4975775;28;21513;-74
2022/06/22 08:20:12;;;;;;;9.18;6.85;;;20.90;99.90;;;;;;4972349;28;20220;-74
2022/06/22 08:22:43;;;;;;;7.68;6.32;;;20.90;99.90;;;;;;4978868;28;20193;-75
2022/06/22 08:25:12;;;;;;;8.90;6.38;;;20.90;99.90;;;;;;4972002;28;20217;-74
2022/06/22 08:27:39;;;;;;;8.18;6.15;;;20.80;99.90;;;;;;4974994;28;20197;-73
2022/06/22 08:30:09;;;;;;;9.43;5.63;;;20.80;99.90;;;;;;4975036;28;20235;-73
2022/06/22 08:32:44;;;;;;;6.13;5.53;;;20.80;99.90;;;;;;4974593;28;20287;-74
2022/06/22 08:35:15;;;;;;;5.40;4.93;;;20.90;99.90;;;;;;4972814;28;20224;-72
2022/06/22 08:37:48;;;;;;;8.68;5.93;;;21.10;99.90;;;;;;4978986;28;20612;-72
2022/06/22 08:40:24;;;;;;;6.82;5.75;;;21.20;99.90;;;;;;4973912;28;20239;-74
2022/06/22 08:42:56;;;;;;;7.05;6.35;;;21.20;99.90;;;;;;4979066;28;20271;-73
2022/06/22 08:46:03;;;;;;;9.23;7.00;;;21.20;99.90;;;;;;4982730;28;20240;-73
2022/06/22 08:48:59;;;;;;;8.80;7.95;;;20.90;99.90;;;;;;4975704;28;20225;-72
2022/06/22 08:52:01;;;;;;;14.40;9.82;;;20.50;99.90;;;;;;4978233;28;20220;-73
2022/06/22 08:54:43;;;;;;;11.10;8.30;;;20.20;99.90;;;;;;4976751;28;20244;-71
2022/06/22 08:57:20;;;;;;;8.68;7.85;;;20.00;99.90;;;;;;4970784;28;20871;-70
2022/06/22 09:00:10;;;;;;;7.97;6.80;;;19.90;99.90;;;;;;4970071;28;20232;-71
2022/06/22 09:03:04;;;;;;;10.57;7.93;;;20.00;99.90;;;;;;4976695;28;20207;-73
2022/06/22 09:06:11;;;;;;;7.65;6.57;;;20.10;99.90;;;;;;4972153;28;20216;-70
2022/06/22 09:08:57;;;;;;;12.27;8.40;;;20.30;99.90;;;;;;4975955;28;20236;-71
2022/06/22 09:11:31;;;;;;;9.65;6.72;;;20.30;99.90;;;;;;4975700;28;20220;-70
2022/06/22 09:14:35;;;;;;;8.05;6.72;;;20.40;99.90;;;;;;4977347;28;20239;-71
2022/06/22 09:17:28;;;;;;;8.35;6.28;;;20.70;99.90;;;;;;4979712;28;20203;-70
2022/06/22 09:20:15;;;;;;;9.30;6.13;;;20.90;99.90;;;;;;4970304;28;20231;-71
2022/06/22 09:22:55;;;;;;;11.02;7.72;;;21.00;99.90;;;;;;4970614;28;20201;-71
2022/06/22 09:25:28;;;;;;;11.30;7.13;;;21.20;99.90;;;;;;4975069;28;20224;-71
2022/06/22 09:28:03;;;;;;;9.63;6.53;;;21.20;99.90;;;;;;4976002;28;20205;-71
2022/06/22 09:30:55;;;;;;;9.88;6.05;;;21.00;99.90;;;;;;4977898;28;20685;-70
2022/06/22 09:33:47;;;;;;;8.10;6.43;;;21.00;99.90;;;;;;4974415;28;20213;-71
2022/06/22 09:36:44;;;;;;;6.45;5.65;;;21.10;99.90;;;;;;4980007;28;20208;-71
2022/06/22 09:39:44;;;;;;;6.85;6.10;;;21.00;99.90;;;;;;4976582;28;20736;-71
2022/06/22 09:42:32;;;;;;;8.75;6.43;;;21.00;99.90;;;;;;4975519;28;20509;-71
2022/06/22 09:45:14;;;;;;;8.30;6.40;;;20.90;99.90;;;;;;4973130;28;20272;-71
2022/06/22 09:48:03;;;;;;;6.68;5.55;;;20.90;99.90;;;;;;4976131;28;20201;-73
2022/06/22 09:50:51;;;;;;;13.90;7.15;;;21.10;99.90;;;;;;4982880;28;20308;-72
2022/06/22 09:53:47;;;;;;;13.35;9.20;;;21.10;99.90;;;;;;4979444;28;20223;-73
2022/06/22 09:56:37;;;;;;;11.05;8.30;;;21.00;99.90;;;;;;4974625;28;20201;-72
2022/06/22 09:59:46;;;;;;;10.85;8.40;;;20.80;99.90;;;;;;4967026;28;20236;-71
2022/06/22 10:02:41;;;;;;;14.10;11.00;;;20.70;99.90;;;;;;4947319;28;20240;-71
2022/06/22 10:05:51;;;;;;;14.13;8.90;;;20.60;99.90;;;;;;4970726;28;20223;-71
2022/06/22 10:08:34;;;;;;;8.73;7.82;;;20.60;99.90;;;;;;4980875;28;20204;-71
2022/06/22 10:11:13;;;;;;;14.05;8.40;;;20.50;99.90;;;;;;4981772;28;20217;-71
2022/06/22 10:13:51;;;;;;;9.07;8.18;;;20.50;99.90;;;;;;4981440;28;20225;-71
2022/06/22 10:16:39;;;;;;;10.95;8.48;;;20.60;99.90;;;;;;4976888;28;20235;-70
2022/06/22 10:19:24;;;;;;;8.50;7.68;;;20.70;99.90;;;;;;4976419;28;20197;-70
2022/06/22 10:22:06;;;;;;;8.30;7.50;;;20.70;99.90;;;;;;4977447;28;20563;-71
2022/06/22 10:25:03;;;;;;;7.70;6.70;;;20.80;99.90;;;;;;4975589;28;20225;-71
2022/06/22 10:27:51;;;;;;;9.95;8.07;;;20.90;99.90;;;;;;4978919;28;20192;-71
2022/06/22 10:30:26;;;;;;;12.02;8.63;;;21.00;99.90;;;;;;4976940;28;20243;-70
2022/06/22 10:33:18;;;;;;;11.07;8.25;;;20.70;99.90;;;;;;4980466;28;20202;-71
2022/06/22 10:36:06;;;;;;;10.68;7.25;;;20.60;99.90;;;;;;4974992;28;20225;-71
2022/06/22 10:38:52;;;;;;;10.02;7.20;;;20.60;99.90;;;;;;4982513;28;20209;-70
2022/06/22 10:47:31;;;;;;;7.90;6.55;;;21.10;99.90;;;;;;4973073;28;20212;-72
2022/06/22 10:50:11;;;;;;;8.48;7.45;;;21.40;99.90;;;;;;4975050;28;20806;-71
2022/06/22 10:53:11;;;;;;;8.40;6.60;;;21.70;99.90;;;;;;4979129;28;20219;-71
2022/06/22 10:55:52;;;;;;;6.50;5.85;;;22.00;99.90;;;;;;4957347;28;20217;-72
2022/06/22 10:58:49;;;;;;;6.55;5.85;;;22.30;99.90;;;;;;4972285;28;20284;-72
2022/06/22 11:01:45;;;;;;;7.55;5.95;;;22.50;99.90;;;;;;4978089;28;20698;-72
2022/06/22 11:04:45;;;;;;;9.80;5.85;;;22.70;99.90;;;;;;4975135;28;20209;-71
2022/06/22 11:07:48;;;;;;;12.52;6.43;;;22.70;99.90;;;;;;4971791;28;20236;-72
2022/06/22 11:10:41;;;;;;;6.78;5.88;;;22.60;99.90;;;;;;4969943;28;20232;-72
2022/06/22 11:13:29;;;;;;;10.18;6.55;;;22.50;99.90;;;;;;4973980;28;20584;-72
2022/06/22 11:16:11;;;;;;;7.82;6.07;;;22.30;99.90;;;;;;4973870;28;20216;-72
2022/06/22 11:19:25;;;;;;;7.38;6.35;;;22.20;99.90;;;;;;4975013;28;20682;-72
2022/06/22 11:22:11;;;;;;;8.02;6.35;;;22.10;99.90;;;;;;4970473;28;20240;-72
2022/06/22 11:25:17;;;;;;;5.90;5.18;;;22.20;99.90;;;;;;4978229;28;20277;-72
2022/06/22 11:30:56;;;;;;;7.70;6.20;;;22.30;99.90;;;;;;4978244;28;20270;-72
2022/06/22 11:33:53;;;;;;;7.07;5.70;;;22.30;99.90;;;;;;4978366;28;20207;-71
2022/06/22 11:36:31;;;;;;;8.55;5.88;;;22.20;99.90;;;;;;4970375;28;20225;-71
2022/06/22 11:39:24;;;;;;;7.43;6.03;;;22.10;99.90;;;;;;4976938;28;20678;-71
2022/06/22 11:42:11;;;;;;;7.60;6.20;;;22.10;99.90;;;;;;4958793;28;20229;-72
2022/06/22 11:48:22;;;;;;;7.93;5.63;;;22.20;99.90;;;;;;4973765;28;20252;-72
2022/06/22 11:51:02;;;;;;;7.32;5.28;;;22.20;99.90;;;;;;4978106;28;20224;-73
2022/06/22 11:53:44;;;;;;;7.70;5.82;;;22.10;99.90;;;;;;4976403;28;20300;-73
2022/06/22 11:56:22;;;;;;;10.52;6.13;;;22.00;99.90;;;;;;4976142;28;20281;-73
2022/06/22 11:59:16;;;;;;;11.75;7.13;;;22.00;99.90;;;;;;4979351;28;20227;-73
2022/06/22 12:02:22;;;;;;;6.68;5.97;;;22.00;99.90;;;;;;4983764;28;20209;-73
2022/06/22 12:05:06;;;;;;;13.23;6.15;;;22.00;99.90;;;;;;4968006;28;20266;-73
2022/06/22 12:08:03;;;;;;;7.30;5.70;;;22.10;99.90;;;;;;4983113;28;20571;-74
2022/06/22 12:10:49;;;;;;;6.82;5.50;;;22.10;99.90;;;;;;4956368;28;20225;-73
2022/06/22 12:13:38;;;;;;;6.70;5.05;;;22.10;99.90;;;;;;4984551;28;20220;-73
2022/06/22 12:16:19;;;;;;;6.68;5.45;;;22.20;99.90;;;;;;4981812;28;20193;-73
2022/06/22 12:19:01;;;;;;;7.75;5.32;;;22.20;99.90;;;;;;4980402;28;22258;-73
2022/06/22 12:21:46;;;;;;;6.78;5.07;;;22.20;99.90;;;;;;5024410;23;20342;-80
2022/06/22 12:24:28;;;;;;;6.75;6.03;;;22.20;99.90;;;;;;4963171;28;20212;-78
2022/06/22 12:27:02;;;;;;;10.10;6.07;;;22.10;99.90;;;;;;4961877;28;20699;-78
2022/06/22 12:29:56;;;;;;;9.15;6.20;;;22.00;99.90;;;;;;4965229;28;20221;-79
2022/06/22 12:32:28;;;;;;;6.18;5.35;;;21.90;99.90;;;;;;4942272;28;20205;-75
2022/06/22 12:35:04;;;;;;;6.35;5.55;;;21.90;99.90;;;;;;4946379;28;20486;-78
2022/06/22 12:37:40;;;;;;;6.25;5.65;;;21.90;99.90;;;;;;4944180;28;20197;-80
2022/06/22 12:40:19;;;;;;;6.43;5.20;;;22.00;99.90;;;;;;4950081;28;20579;-79
2022/06/22 12:43:18;;;;;;;7.70;6.63;;;22.10;99.90;;;;;;4943847;28;20206;-80
2022/06/22 12:45:55;;;;;;;7.22;6.32;;;22.20;99.90;;;;;;4918179;28;20249;-79
2022/06/22 12:48:47;;;;;;;12.93;7.45;;;22.30;99.90;;;;;;4941544;28;20213;-77
2022/06/22 12:51:31;;;;;;;8.25;6.40;;;22.30;99.90;;;;;;4945937;28;20612;-80
2022/06/22 12:54:07;;;;;;;7.03;6.43;;;22.30;99.90;;;;;;4942793;28;20672;-79
2022/06/22 12:56:41;;;;;;;8.10;6.90;;;22.30;99.90;;;;;;4944325;28;20695;-79
2022/06/22 12:59:14;;;;;;;9.18;6.63;;;22.40;99.90;;;;;;4940231;28;20665;-77
2022/06/22 13:01:42;;;;;;;7.20;6.50;;;22.50;99.90;;;;;;4937621;28;20229;-78
2022/06/22 13:04:16;;;;;;;9.07;6.50;;;22.50;99.90;;;;;;4941814;28;20688;-81
2022/06/22 13:06:49;;;;;;;9.25;7.32;;;22.50;99.90;;;;;;4942967;28;20565;-80
2022/06/22 13:09:19;;;;;;;7.00;6.30;;;22.50;99.90;;;;;;4941332;28;20531;-78
2022/06/22 13:11:48;;;;;;;7.53;6.82;;;22.50;99.90;;;;;;4941723;28;20751;-79
2022/06/22 13:14:33;;;;;;;9.65;7.07;;;22.50;99.90;;;;;;4943039;28;20222;-79
2022/06/22 13:17:14;;;;;;;10.25;7.18;;;22.40;99.90;;;;;;4943695;28;20202;-78
2022/06/22 13:19:55;;;;;;;8.43;7.53;;;22.20;99.90;;;;;;4940203;28;20764;-78
2022/06/22 13:22:31;;;;;;;11.70;7.28;;;22.00;99.90;;;;;;4945428;28;20204;-78
2022/06/22 13:25:09;;;;;;;6.68;6.00;;;22.00;99.90;;;;;;4947017;28;20225;-79
2022/06/22 13:27:48;;;;;;;8.18;5.93;;;22.00;99.90;;;;;;4945936;28;20391;-81
2022/06/22 13:30:23;;;;;;;8.98;6.13;;;22.10;99.90;;;;;;4952456;28;20284;-80
2022/06/22 13:32:58;;;;;;;8.00;6.28;;;22.20;99.90;;;;;;4952436;28;20421;-80
2022/06/22 13:35:31;;;;;;;10.27;6.30;;;22.20;99.90;;;;;;4949322;28;20253;-79
2022/06/22 13:38:10;;;;;;;12.52;7.47;;;22.30;99.90;;;;;;4951032;29;20692;-78
2022/06/22 13:40:47;;;;;;;8.77;6.30;;;22.40;99.90;;;;;;4949355;29;20218;-81
2022/06/22 13:43:31;;;;;;;6.97;6.28;;;22.50;99.90;;;;;;4946249;29;20206;-78
2022/06/22 13:46:20;;;;;;;9.00;7.22;;;22.50;99.90;;;;;;4947850;28;20225;-79
2022/06/22 13:48:54;;;;;;;8.90;6.80;;;22.50;99.90;;;;;;4946516;29;20201;-78
2022/06/22 13:51:53;;;;;;;8.27;7.22;;;22.40;99.90;;;;;;4949863;29;20230;-78
2022/06/22 13:54:50;;;;;;;7.35;6.55;;;22.30;99.90;;;;;;4938908;29;20218;-78
2022/06/22 13:57:34;;;;;;;7.38;6.65;;;22.30;99.90;;;;;;4947618;29;20315;-78
2022/06/22 14:00:11;;;;;;;7.70;6.50;;;22.20;99.90;;;;;;4948774;29;20305;-79